SILO ALERT LOG


Silo ID Alert Type Alert Message Silo Type Points Depth (mm) Strength Temperature (°C) Humidity (%) Height (mm) Volume (㎥) Weight (t) Flag Time
WJWJR01 Humidity 습도센서 측정값이 80% 초과 6329 9239 8743 80 100 3577 8045 2467 15 2026-07-24 11:57:36.000
WJWJR05 Humidity 습도센서 측정값이 80% 초과 3666 3547 6680 80 100 7666 7141 1663 15 2026-07-24 11:57:35.000
WJWJR01 Humidity 습도센서 측정값이 80% 초과 1904 6020 7880 80 100 3652 5060 9350 15 2026-07-24 11:57:29.000
WJWJR05 Humidity 습도센서 측정값이 80% 초과 4990 7894 7373 80 100 3480 4174 6724 15 2026-07-24 11:57:28.000
WJWJR05 Humidity 습도센서 측정값이 80% 초과 4265 5092 5861 80 100 7035 5366 7094 15 2026-07-24 11:57:21.000
WJWJR01 Humidity 습도센서 측정값이 80% 초과 3070 6833 9221 80 100 6266 1039 8379 15 2026-07-24 11:57:20.000
WJWJR01 Humidity 습도센서 측정값이 80% 초과 8347 8146 5562 80 100 9094 6195 2027 15 2026-07-24 11:57:14.000
WJWJR05 Humidity 습도센서 측정값이 80% 초과 3391 7710 5113 80 100 2114 5862 6789 15 2026-07-24 11:57:13.000
WJWJR01 Humidity 습도센서 측정값이 80% 초과 4015 6045 2751 80 100 8904 1083 5019 15 2026-07-24 11:57:07.000
WJWJR05 Humidity 습도센서 측정값이 80% 초과 4826 1152 5791 80 100 3998 3115 7294 15 2026-07-24 11:57:06.000
WJWJR01 Humidity 습도센서 측정값이 80% 초과 4953 9245 4638 80 100 8214 1740 4966 15 2026-07-24 11:57:00.000
WJWJR05 Humidity 습도센서 측정값이 80% 초과 6360 3279 4689 80 100 3537 3977 4114 15 2026-07-24 11:56:59.000
WJWJR01 Humidity 습도센서 측정값이 80% 초과 5003 7576 2314 80 100 8680 7480 1179 15 2026-07-24 11:56:53.000
WJWJR05 Humidity 습도센서 측정값이 80% 초과 1476 8120 1128 80 100 8910 2153 5642 15 2026-07-24 11:56:52.000
WJWJR01 Humidity 습도센서 측정값이 80% 초과 9457 1560 7513 80 100 3232 1904 4991 15 2026-07-24 11:56:46.000
WJWJR05 Humidity 습도센서 측정값이 80% 초과 7838 1211 6460 80 100 3738 8290 6711 15 2026-07-24 11:56:45.000
WJWJR05 Humidity 습도센서 측정값이 80% 초과 8780 6688 4901 80 100 6368 7524 3260 15 2026-07-24 11:56:40.000
WJWJR01 Humidity 습도센서 측정값이 80% 초과 4909 8739 5154 80 100 8322 8469 8467 15 2026-07-24 11:56:39.000
WJWJR01 Humidity 습도센서 측정값이 80% 초과 7987 9642 3042 80 100 5132 8308 5227 15 2026-07-24 11:56:32.000
WJWJR05 Humidity 습도센서 측정값이 80% 초과 8059 2228 8108 80 100 1350 3915 1883 15 2026-07-24 11:56:32.000

[첫 페이지] [13] [14] [15] [16] 17 [18] [19] [20] [21] [마지막 페이지]